sensor_id;sensor_type;location;lat;lon;timestamp;pressure;altitude;pressure_sealevel;temperature;humidity
16978;BME280;8605;52.548;4.918;2024-03-07T00:01:46;102746.59;;;5.20;99.49
16978;BME280;8605;52.548;4.918;2024-03-07T00:04:14;102744.22;;;5.14;98.94
16978;BME280;8605;52.548;4.918;2024-03-07T00:06:42;102747.75;;;5.15;98.58
16978;BME280;8605;52.548;4.918;2024-03-07T00:09:12;102741.56;;;5.14;99.40
16978;BME280;8605;52.548;4.918;2024-03-07T00:11:43;102744.59;;;5.07;99.28
16978;BME280;8605;52.548;4.918;2024-03-07T00:14:11;102749.06;;;5.06;99.15
16978;BME280;8605;52.548;4.918;2024-03-07T00:16:39;102753.47;;;5.07;99.51
16978;BME280;8605;52.548;4.918;2024-03-07T00:19:07;102751.09;;;5.01;98.90
16978;BME280;8605;52.548;4.918;2024-03-07T00:21:35;102763.28;;;5.07;98.54
16978;BME280;8605;52.548;4.918;2024-03-07T00:24:04;102758.16;;;5.02;99.01
16978;BME280;8605;52.548;4.918;2024-03-07T00:26:32;102761.63;;;5.04;98.59
16978;BME280;8605;52.548;4.918;2024-03-07T00:29:01;102750.97;;;5.04;98.92
16978;BME280;8605;52.548;4.918;2024-03-07T00:31:29;102752.84;;;5.02;98.59
16978;BME280;8605;52.548;4.918;2024-03-07T00:33:57;102752.13;;;4.99;98.61
16978;BME280;8605;52.548;4.918;2024-03-07T00:36:38;102763.63;;;4.99;98.63
16978;BME280;8605;52.548;4.918;2024-03-07T00:39:06;102757.59;;;4.96;98.80
16978;BME280;8605;52.548;4.918;2024-03-07T00:41:34;102762.06;;;4.95;98.52
16978;BME280;8605;52.548;4.918;2024-03-07T00:44:04;102760.41;;;4.93;98.66
16978;BME280;8605;52.548;4.918;2024-03-07T00:46:32;102757.03;;;4.89;98.22
16978;BME280;8605;52.548;4.918;2024-03-07T00:49:00;102765.28;;;4.85;98.50
16978;BME280;8605;52.548;4.918;2024-03-07T00:51:28;102761.81;;;4.82;98.35
16978;BME280;8605;52.548;4.918;2024-03-07T00:53:56;102763.91;;;4.76;97.57
16978;BME280;8605;52.548;4.918;2024-03-07T00:56:24;102760.44;;;4.74;98.39
16978;BME280;8605;52.548;4.918;2024-03-07T00:58:52;102762.38;;;4.70;97.81
16978;BME280;8605;52.548;4.918;2024-03-07T01:01:21;102769.53;;;4.70;97.62
16978;BME280;8605;52.548;4.918;2024-03-07T01:03:49;102760.00;;;4.64;98.07
16978;BME280;8605;52.548;4.918;2024-03-07T01:06:17;102761.06;;;4.60;98.01
16978;BME280;8605;52.548;4.918;2024-03-07T01:08:45;102760.25;;;4.60;97.70
16978;BME280;8605;52.548;4.918;2024-03-07T01:11:13;102748.91;;;4.55;98.22
16978;BME280;8605;52.548;4.918;2024-03-07T01:13:41;102755.97;;;4.56;97.90
16978;BME280;8605;52.548;4.918;2024-03-07T01:16:09;102740.50;;;4.45;97.89
16978;BME280;8605;52.548;4.918;2024-03-07T01:18:39;102750.88;;;4.51;98.32
16978;BME280;8605;52.548;4.918;2024-03-07T01:21:06;102741.41;;;4.44;97.28
16978;BME280;8605;52.548;4.918;2024-03-07T01:23:35;102753.59;;;4.50;97.69
16978;BME280;8605;52.548;4.918;2024-03-07T01:26:03;102749.41;;;4.44;98.23
16978;BME280;8605;52.548;4.918;2024-03-07T01:28:31;102744.16;;;4.42;97.79
16978;BME280;8605;52.548;4.918;2024-03-07T01:30:58;102743.38;;;4.40;97.76
16978;BME280;8605;52.548;4.918;2024-03-07T01:33:26;102745.31;;;4.37;97.13
16978;BME280;8605;52.548;4.918;2024-03-07T01:35:56;102734.88;;;4.32;98.10
16978;BME280;8605;52.548;4.918;2024-03-07T01:38:24;102743.78;;;4.31;97.59
16978;BME280;8605;52.548;4.918;2024-03-07T01:40:52;102739.63;;;4.26;97.90
16978;BME280;8605;52.548;4.918;2024-03-07T01:43:21;102740.66;;;4.22;97.24
16978;BME280;8605;52.548;4.918;2024-03-07T01:45:50;102733.81;;;4.16;97.39
16978;BME280;8605;52.548;4.918;2024-03-07T01:48:25;102742.50;;;4.21;97.36
16978;BME280;8605;52.548;4.918;2024-03-07T01:50:53;102748.94;;;4.16;98.00
16978;BME280;8605;52.548;4.918;2024-03-07T01:53:24;102745.50;;;4.14;97.50
16978;BME280;8605;52.548;4.918;2024-03-07T01:55:53;102740.09;;;4.15;98.23
16978;BME280;8605;52.548;4.918;2024-03-07T01:58:21;102739.59;;;4.07;97.30
16978;BME280;8605;52.548;4.918;2024-03-07T02:00:49;102743.91;;;4.10;98.17
16978;BME280;8605;52.548;4.918;2024-03-07T02:03:17;102740.47;;;4.08;97.42
16978;BME280;8605;52.548;4.918;2024-03-07T02:05:45;102735.19;;;4.06;97.51
16978;BME280;8605;52.548;4.918;2024-03-07T02:08:13;102732.53;;;4.06;97.71
16978;BME280;8605;52.548;4.918;2024-03-07T02:10:42;102730.09;;;4.01;97.40
16978;BME280;8605;52.548;4.918;2024-03-07T02:13:11;102739.00;;;4.00;97.50
16978;BME280;8605;52.548;4.918;2024-03-07T02:15:38;102728.41;;;3.99;97.50
16978;BME280;8605;52.548;4.918;2024-03-07T02:18:09;102729.41;;;3.96;98.18
16978;BME280;8605;52.548;4.918;2024-03-07T02:20:37;102724.16;;;3.95;97.75
16978;BME280;8605;52.548;4.918;2024-03-07T02:23:07;102724.16;;;3.95;97.25
16978;BME280;8605;52.548;4.918;2024-03-07T02:25:34;102727.09;;;3.89;98.26
16978;BME280;8605;52.548;4.918;2024-03-07T02:28:04;102720.97;;;3.87;98.16
16978;BME280;8605;52.548;4.918;2024-03-07T02:30:32;102729.88;;;3.86;97.33
16978;BME280;8605;52.548;4.918;2024-03-07T02:33:00;102725.66;;;3.82;97.10
16978;BME280;8605;52.548;4.918;2024-03-07T02:35:33;102724.78;;;3.81;97.37
16978;BME280;8605;52.548;4.918;2024-03-07T02:38:03;102721.31;;;3.79;97.60
16978;BME280;8605;52.548;4.918;2024-03-07T02:40:32;102714.59;;;3.71;97.07
16978;BME280;8605;52.548;4.918;2024-03-07T02:43:00;102723.25;;;3.76;97.92
16978;BME280;8605;52.548;4.918;2024-03-07T02:45:30;102719.78;;;3.74;97.64
16978;BME280;8605;52.548;4.918;2024-03-07T02:47:57;102712.72;;;3.73;97.63
16978;BME280;8605;52.548;4.918;2024-03-07T02:50:25;102718.31;;;3.67;97.52
16978;BME280;8605;52.548;4.918;2024-03-07T02:52:53;102715.00;;;3.61;98.09
16978;BME280;8605;52.548;4.918;2024-03-07T02:55:21;102713.22;;;3.62;97.81
16978;BME280;8605;52.548;4.918;2024-03-07T02:57:50;102713.00;;;3.67;97.80
16978;BME280;8605;52.548;4.918;2024-03-07T03:00:19;102708.97;;;3.77;98.91
16978;BME280;8605;52.548;4.918;2024-03-07T03:02:48;102698.06;;;3.83;99.09
16978;BME280;8605;52.548;4.918;2024-03-07T03:05:16;102702.00;;;3.94;99.29
16978;BME280;8605;52.548;4.918;2024-03-07T03:07:45;102692.97;;;3.97;99.58
16978;BME280;8605;52.548;4.918;2024-03-07T03:10:21;102693.78;;;3.99;99.72
16978;BME280;8605;52.548;4.918;2024-03-07T03:12:53;102682.19;;;4.00;99.98
16978;BME280;8605;52.548;4.918;2024-03-07T03:15:21;102679.38;;;4.03;99.97
16978;BME280;8605;52.548;4.918;2024-03-07T03:17:50;102682.97;;;4.02;100.00
16978;BME280;8605;52.548;4.918;2024-03-07T03:20:18;102682.03;;;4.03;100.00
16978;BME280;8605;52.548;4.918;2024-03-07T03:22:52;102685.50;;;4.05;99.88
16978;BME280;8605;52.548;4.918;2024-03-07T03:25:40;102680.19;;;4.05;99.82
16978;BME280;8605;52.548;4.918;2024-03-07T03:28:10;102687.25;;;4.06;100.00
16978;BME280;8605;52.548;4.918;2024-03-07T03:30:38;102685.44;;;4.07;100.00
16978;BME280;8605;52.548;4.918;2024-03-07T03:33:06;102682.84;;;4.05;100.00
16978;BME280;8605;52.548;4.918;2024-03-07T03:35:34;102680.13;;;4.07;100.00
16978;BME280;8605;52.548;4.918;2024-03-07T03:38:02;102673.94;;;4.06;100.00
16978;BME280;8605;52.548;4.918;2024-03-07T03:40:30;102681.00;;;4.07;100.00
16978;BME280;8605;52.548;4.918;2024-03-07T03:42:59;102681.91;;;4.06;100.00
16978;BME280;8605;52.548;4.918;2024-03-07T03:45:28;102681.84;;;4.08;100.00
16978;BME280;8605;52.548;4.918;2024-03-07T03:47:58;102675.78;;;4.04;100.00
16978;BME280;8605;52.548;4.918;2024-03-07T03:50:26;102670.47;;;4.04;100.00
16978;BME280;8605;52.548;4.918;2024-03-07T03:52:55;102675.84;;;4.02;100.00
16978;BME280;8605;52.548;4.918;2024-03-07T03:55:24;102680.25;;;4.03;100.00
16978;BME280;8605;52.548;4.918;2024-03-07T03:57:51;102683.78;;;4.04;100.00
16978;BME280;8605;52.548;4.918;2024-03-07T04:00:20;102674.06;;;4.03;100.00
16978;BME280;8605;52.548;4.918;2024-03-07T04:02:51;102670.63;;;4.01;99.89
16978;BME280;8605;52.548;4.918;2024-03-07T04:05:20;102668.09;;;3.98;99.93
16978;BME280;8605;52.548;4.918;2024-03-07T04:07:48;102674.34;;;3.97;99.64
16978;BME280;8605;52.548;4.918;2024-03-07T04:10:17;102670.75;;;3.98;100.00
16978;BME280;8605;52.548;4.918;2024-03-07T04:12:45;102672.47;;;3.99;100.00
16978;BME280;8605;52.548;4.918;2024-03-07T04:15:14;102668.03;;;3.99;100.00
16978;BME280;8605;52.548;4.918;2024-03-07T04:17:45;102672.31;;;4.02;100.00
16978;BME280;8605;52.548;4.918;2024-03-07T04:20:16;102659.28;;;3.96;100.00
16978;BME280;8605;52.548;4.918;2024-03-07T04:22:46;102663.28;;;4.06;99.98
16978;BME280;8605;52.548;4.918;2024-03-07T04:25:16;102663.28;;;4.06;99.68
16978;BME280;8605;52.548;4.918;2024-03-07T04:27:43;102669.31;;;4.10;100.00
16978;BME280;8605;52.548;4.918;2024-03-07T04:30:12;102661.19;;;4.13;100.00
16978;BME280;8605;52.548;4.918;2024-03-07T04:32:42;102668.09;;;4.17;100.00
16978;BME280;8605;52.548;4.918;2024-03-07T04:35:10;102664.44;;;4.19;100.00
16978;BME280;8605;52.548;4.918;2024-03-07T04:37:43;102678.16;;;4.29;100.00
16978;BME280;8605;52.548;4.918;2024-03-07T04:40:12;102675.31;;;4.33;100.00
16978;BME280;8605;52.548;4.918;2024-03-07T04:42:46;102675.16;;;4.36;100.00
16978;BME280;8605;52.548;4.918;2024-03-07T04:45:15;102666.94;;;4.41;100.00
16978;BME280;8605;52.548;4.918;2024-03-07T04:47:44;102677.38;;;4.46;100.00
16978;BME280;8605;52.548;4.918;2024-03-07T04:50:12;102661.09;;;4.52;100.00
16978;BME280;8605;52.548;4.918;2024-03-07T04:52:46;102666.13;;;4.58;100.00
16978;BME280;8605;52.548;4.918;2024-03-07T04:55:15;102662.44;;;4.60;100.00
16978;BME280;8605;52.548;4.918;2024-03-07T04:57:44;102664.28;;;4.60;100.00
16978;BME280;8605;52.548;4.918;2024-03-07T05:00:13;102668.72;;;4.59;100.00
16978;BME280;8605;52.548;4.918;2024-03-07T05:02:45;102663.47;;;4.58;100.00
16978;BME280;8605;52.548;4.918;2024-03-07T05:05:14;102655.47;;;4.58;100.00
16978;BME280;8605;52.548;4.918;2024-03-07T05:07:46;102650.44;;;4.52;100.00
16978;BME280;8605;52.548;4.918;2024-03-07T05:10:16;102658.28;;;4.55;100.00
16978;BME280;8605;52.548;4.918;2024-03-07T05:12:43;102657.50;;;4.53;100.00
16978;BME280;8605;52.548;4.918;2024-03-07T05:15:11;102654.03;;;4.51;100.00
16978;BME280;8605;52.548;4.918;2024-03-07T05:17:39;102653.16;;;4.50;100.00
16978;BME280;8605;52.548;4.918;2024-03-07T05:20:10;102659.50;;;4.48;100.00
16978;BME280;8605;52.548;4.918;2024-03-07T05:22:40;102660.47;;;4.47;100.00
16978;BME280;8605;52.548;4.918;2024-03-07T05:25:13;102658.66;;;4.47;100.00
16978;BME280;8605;52.548;4.918;2024-03-07T05:27:43;102656.06;;;4.46;100.00
16978;BME280;8605;52.548;4.918;2024-03-07T05:30:11;102643.22;;;4.35;100.00
16978;BME280;8605;52.548;4.918;2024-03-07T05:32:42;102671.31;;;4.42;100.00
16978;BME280;8605;52.548;4.918;2024-03-07T05:35:10;102656.50;;;4.36;100.00
16978;BME280;8605;52.548;4.918;2024-03-07T05:37:38;102663.69;;;4.34;100.00
16978;BME280;8605;52.548;4.918;2024-03-07T05:40:09;102668.09;;;4.35;100.00
16978;BME280;8605;52.548;4.918;2024-03-07T05:42:38;102663.91;;;4.30;100.00
16978;BME280;8605;52.548;4.918;2024-03-07T05:45:06;102655.13;;;4.28;100.00
16978;BME280;8605;52.548;4.918;2024-03-07T05:47:35;102658.75;;;4.27;100.00
16978;BME280;8605;52.548;4.918;2024-03-07T05:50:03;102660.59;;;4.25;99.98
16978;BME280;8605;52.548;4.918;2024-03-07T05:52:34;102673.22;;;4.21;100.00
16978;BME280;8605;52.548;4.918;2024-03-07T05:55:02;102666.94;;;4.22;100.00
16978;BME280;8605;52.548;4.918;2024-03-07T05:57:29;102673.94;;;4.25;99.70
16978;BME280;8605;52.548;4.918;2024-03-07T05:59:58;102667.97;;;4.20;100.00
16978;BME280;8605;52.548;4.918;2024-03-07T06:02:27;102672.50;;;4.18;100.00
16978;BME280;8605;52.548;4.918;2024-03-07T06:04:54;102665.44;;;4.17;99.71
16978;BME280;8605;52.548;4.918;2024-03-07T06:07:22;102666.75;;;4.08;99.49
16978;BME280;8605;52.548;4.918;2024-03-07T06:09:50;102669.25;;;4.11;100.00
16978;BME280;8605;52.548;4.918;2024-03-07T06:12:18;102652.56;;;4.08;99.55
16978;BME280;8605;52.548;4.918;2024-03-07T06:14:53;102662.47;;;4.04;100.00
16978;BME280;8605;52.548;4.918;2024-03-07T06:17:23;102658.88;;;4.05;99.69
16978;BME280;8605;52.548;4.918;2024-03-07T06:19:50;102660.91;;;4.00;99.56
16978;BME280;8605;52.548;4.918;2024-03-07T06:22:18;102671.56;;;4.00;100.00
16978;BME280;8605;52.548;4.918;2024-03-07T06:24:46;102668.03;;;3.99;99.61
16978;BME280;8605;52.548;4.918;2024-03-07T06:27:14;102664.44;;;4.00;99.42
16978;BME280;8605;52.548;4.918;2024-03-07T06:29:53;102665.34;;;3.99;99.19
16978;BME280;8605;52.548;4.918;2024-03-07T06:32:23;102667.16;;;3.99;99.60
16978;BME280;8605;52.548;4.918;2024-03-07T06:34:50;102666.16;;;4.01;99.14
16978;BME280;8605;52.548;4.918;2024-03-07T06:37:18;102667.16;;;3.99;99.39
16978;BME280;8605;52.548;4.918;2024-03-07T06:39:46;102673.34;;;3.99;99.79
16978;BME280;8605;52.548;4.918;2024-03-07T06:42:14;102670.75;;;3.98;99.79
16978;BME280;8605;52.548;4.918;2024-03-07T06:44:43;102663.69;;;3.97;99.73
16978;BME280;8605;52.548;4.918;2024-03-07T06:47:10;102666.06;;;4.03;99.14
16978;BME280;8605;52.548;4.918;2024-03-07T06:49:40;102667.81;;;4.04;99.77
16978;BME280;8605;52.548;4.918;2024-03-07T06:52:07;102666.81;;;4.07;99.64
16978;BME280;8605;52.548;4.918;2024-03-07T06:54:36;102664.84;;;4.10;99.56
16978;BME280;8605;52.548;4.918;2024-03-07T06:57:04;102660.38;;;4.11;99.54
16978;BME280;8605;52.548;4.918;2024-03-07T06:59:32;102663.78;;;4.14;99.80
16978;BME280;8605;52.548;4.918;2024-03-07T07:01:59;102666.22;;;4.19;99.83
16978;BME280;8605;52.548;4.918;2024-03-07T07:04:28;102668.72;;;4.22;99.76
16978;BME280;8605;52.548;4.918;2024-03-07T07:07:09;102670.41;;;4.24;99.79
16978;BME280;8605;52.548;4.918;2024-03-07T07:09:39;102670.28;;;4.27;99.77
16978;BME280;8605;52.548;4.918;2024-03-07T07:12:08;102663.91;;;4.30;99.91
16978;BME280;8605;52.548;4.918;2024-03-07T07:14:36;102669.00;;;4.34;99.03
16978;BME280;8605;52.548;4.918;2024-03-07T07:17:06;102669.97;;;4.33;99.12
16978;BME280;8605;52.548;4.918;2024-03-07T07:19:36;102679.53;;;4.37;99.46
16978;BME280;8605;52.548;4.918;2024-03-07T07:22:04;102673.91;;;4.43;99.28
16978;BME280;8605;52.548;4.918;2024-03-07T07:24:34;102672.81;;;4.48;99.69
16978;BME280;8605;52.548;4.918;2024-03-07T07:27:01;102674.56;;;4.49;99.82
16978;BME280;8605;52.548;4.918;2024-03-07T07:29:29;102670.03;;;4.51;99.55
16978;BME280;8605;52.548;4.918;2024-03-07T07:31:57;102664.47;;;4.55;98.85
16978;BME280;8605;52.548;4.918;2024-03-07T07:34:25;102665.25;;;4.57;99.78
16978;BME280;8605;52.548;4.918;2024-03-07T07:36:53;102665.09;;;4.60;99.67
16978;BME280;8605;52.548;4.918;2024-03-07T07:39:21;102665.75;;;4.65;98.58
16978;BME280;8605;52.548;4.918;2024-03-07T07:41:50;102666.41;;;4.70;98.76
16978;BME280;8605;52.548;4.918;2024-03-07T07:44:18;102660.75;;;4.76;98.68
16978;BME280;8605;52.548;4.918;2024-03-07T07:46:45;102667.81;;;4.77;99.13
16978;BME280;8605;52.548;4.918;2024-03-07T07:49:13;102665.78;;;4.82;98.79
16978;BME280;8605;52.548;4.918;2024-03-07T07:51:42;102660.38;;;4.84;97.89
16978;BME280;8605;52.548;4.918;2024-03-07T07:54:10;102662.69;;;4.92;97.93
16978;BME280;8605;52.548;4.918;2024-03-07T07:56:37;102661.72;;;4.93;98.21
16978;BME280;8605;52.548;4.918;2024-03-07T07:59:07;102660.72;;;4.95;98.08
16978;BME280;8605;52.548;4.918;2024-03-07T08:01:35;102659.69;;;4.98;97.80
16978;BME280;8605;52.548;4.918;2024-03-07T08:04:03;102665.72;;;5.01;97.80
16978;BME280;8605;52.548;4.918;2024-03-07T08:06:31;102656.88;;;5.01;96.98
16978;BME280;8605;52.548;4.918;2024-03-07T08:08:59;102662.19;;;5.01;97.81
16978;BME280;8605;52.548;4.918;2024-03-07T08:11:27;102661.03;;;5.06;97.73
16978;BME280;8605;52.548;4.918;2024-03-07T08:13:54;102660.88;;;5.09;97.70
16978;BME280;8605;52.548;4.918;2024-03-07T08:16:23;102656.47;;;5.08;96.89
16978;BME280;8605;52.548;4.918;2024-03-07T08:18:51;102663.56;;;5.09;97.04
16978;BME280;8605;52.548;4.918;2024-03-07T08:21:19;102664.25;;;5.13;96.88
16978;BME280;8605;52.548;4.918;2024-03-07T08:23:47;102655.09;;;5.18;97.01
16978;BME280;8605;52.548;4.918;2024-03-07T08:26:14;102661.19;;;5.20;96.75
16978;BME280;8605;52.548;4.918;2024-03-07T08:28:42;102665.75;;;5.18;97.09
16978;BME280;8605;52.548;4.918;2024-03-07T08:31:10;102668.25;;;5.21;96.40
16978;BME280;8605;52.548;4.918;2024-03-07T08:33:40;102668.34;;;5.20;96.42
16978;BME280;8605;52.548;4.918;2024-03-07T08:36:08;102662.06;;;5.21;96.00
16978;BME280;8605;52.548;4.918;2024-03-07T08:38:36;102664.28;;;5.30;96.68
16978;BME280;8605;52.548;4.918;2024-03-07T08:41:04;102660.72;;;5.30;95.63
16978;BME280;8605;52.548;4.918;2024-03-07T08:43:32;102656.94;;;5.34;95.54
16978;BME280;8605;52.548;4.918;2024-03-07T08:46:00;102655.41;;;5.30;95.27
16978;BME280;8605;52.548;4.918;2024-03-07T08:48:28;102658.69;;;5.35;94.50
16978;BME280;8605;52.548;4.918;2024-03-07T08:50:57;102656.63;;;5.40;94.28
16978;BME280;8605;52.548;4.918;2024-03-07T08:53:25;102653.81;;;5.43;94.47
16978;BME280;8605;52.548;4.918;2024-03-07T08:55:53;102657.09;;;5.48;93.93
16978;BME280;8605;52.548;4.918;2024-03-07T08:58:21;102656.31;;;5.46;94.21
16978;BME280;8605;52.548;4.918;2024-03-07T09:00:48;102643.75;;;5.48;93.94
16978;BME280;8605;52.548;4.918;2024-03-07T09:03:18;102650.16;;;5.61;94.03
16978;BME280;8605;52.548;4.918;2024-03-07T09:05:48;102651.13;;;5.60;94.20
16978;BME280;8605;52.548;4.918;2024-03-07T09:08:18;102656.44;;;5.60;93.79
16978;BME280;8605;52.548;4.918;2024-03-07T09:10:46;102652.22;;;5.56;94.17
16978;BME280;8605;52.548;4.918;2024-03-07T09:13:16;102656.38;;;5.61;93.94
16978;BME280;8605;52.548;4.918;2024-03-07T09:15:44;102653.78;;;5.60;93.81
16978;BME280;8605;52.548;4.918;2024-03-07T09:18:12;102655.84;;;5.55;93.35
16978;BME280;8605;52.548;4.918;2024-03-07T09:20:40;102653.31;;;5.52;93.73
16978;BME280;8605;52.548;4.918;2024-03-07T09:23:08;102647.53;;;5.44;93.26
16978;BME280;8605;52.548;4.918;2024-03-07T09:25:37;102662.03;;;5.55;93.90
16978;BME280;8605;52.548;4.918;2024-03-07T09:28:06;102652.50;;;5.67;93.99
16978;BME280;8605;52.548;4.918;2024-03-07T09:30:34;102650.31;;;5.58;93.66
16978;BME280;8605;52.548;4.918;2024-03-07T09:33:05;102643.81;;;5.63;93.83
16978;BME280;8605;52.548;4.918;2024-03-07T09:35:38;102643.09;;;5.60;93.81
16978;BME280;8605;52.548;4.918;2024-03-07T09:38:06;102641.03;;;5.65;93.36
16978;BME280;8605;52.548;4.918;2024-03-07T09:40:34;102640.97;;;5.67;93.27
16978;BME280;8605;52.548;4.918;2024-03-07T09:43:03;102630.91;;;5.72;92.93
16978;BME280;8605;52.548;4.918;2024-03-07T09:45:37;102634.44;;;5.89;93.32
16978;BME280;8605;52.548;4.918;2024-03-07T09:48:06;102627.56;;;6.01;92.41
16978;BME280;8605;52.548;4.918;2024-03-07T09:50:36;102611.69;;;5.98;92.19
16978;BME280;8605;52.548;4.918;2024-03-07T09:53:04;102631.69;;;6.07;92.03
16978;BME280;8605;52.548;4.918;2024-03-07T09:55:32;102628.69;;;6.13;91.88
16978;BME280;8605;52.548;4.918;2024-03-07T09:58:00;102620.28;;;6.03;91.35
16978;BME280;8605;52.548;4.918;2024-03-07T10:00:31;102630.00;;;6.21;91.64
16978;BME280;8605;52.548;4.918;2024-03-07T10:03:03;102618.78;;;6.15;90.52
16978;BME280;8605;52.548;4.918;2024-03-07T10:05:33;102628.59;;;6.14;89.87
16978;BME280;8605;52.548;4.918;2024-03-07T10:08:01;102623.78;;;6.21;90.20
16978;BME280;8605;52.548;4.918;2024-03-07T10:10:29;102624.63;;;6.21;89.18
16978;BME280;8605;52.548;4.918;2024-03-07T10:12:58;102623.25;;;6.30;89.32
16978;BME280;8605;52.548;4.918;2024-03-07T10:15:28;102611.88;;;6.26;88.37
16978;BME280;8605;52.548;4.918;2024-03-07T10:17:58;102624.63;;;6.37;89.27
16978;BME280;8605;52.548;4.918;2024-03-07T10:20:27;102620.16;;;6.22;87.73
16978;BME280;8605;52.548;4.918;2024-03-07T10:22:55;102617.22;;;6.26;87.70
16978;BME280;8605;52.548;4.918;2024-03-07T10:25:24;102614.53;;;6.26;88.00
16978;BME280;8605;52.548;4.918;2024-03-07T10:27:55;102603.84;;;6.26;87.36
16978;BME280;8605;52.548;4.918;2024-03-07T10:30:25;102607.72;;;6.36;87.48
16978;BME280;8605;52.548;4.918;2024-03-07T10:32:55;102612.13;;;6.37;87.32
16978;BME280;8605;52.548;4.918;2024-03-07T10:35:28;102609.00;;;6.45;87.21
16978;BME280;8605;52.548;4.918;2024-03-07T10:37:58;102599.25;;;6.44;87.27
16978;BME280;8605;52.548;4.918;2024-03-07T10:40:28;102604.34;;;6.49;87.21
16978;BME280;8605;52.548;4.918;2024-03-07T10:42:58;102597.53;;;6.43;87.02
16978;BME280;8605;52.548;4.918;2024-03-07T10:45:30;102594.50;;;6.49;86.91
16978;BME280;8605;52.548;4.918;2024-03-07T10:48:03;102596.50;;;6.46;86.14
16978;BME280;8605;52.548;4.918;2024-03-07T10:50:52;102586.84;;;6.43;85.57
16978;BME280;8605;52.548;4.918;2024-03-07T10:53:29;102591.91;;;6.63;85.88
16978;BME280;8605;52.548;4.918;2024-03-07T10:56:12;102582.78;;;6.52;86.07
16978;BME280;8605;52.548;4.918;2024-03-07T10:58:49;102574.56;;;6.55;86.13
16978;BME280;8605;52.548;4.918;2024-03-07T11:01:23;102576.91;;;6.61;86.01
16978;BME280;8605;52.548;4.918;2024-03-07T11:03:53;102572.50;;;6.60;85.56
16978;BME280;8605;52.548;4.918;2024-03-07T11:06:25;102571.31;;;6.50;85.81
16978;BME280;8605;52.548;4.918;2024-03-07T11:08:53;102574.41;;;6.58;85.66
16978;BME280;8605;52.548;4.918;2024-03-07T11:11:22;102580.69;;;6.72;86.19
16978;BME280;8605;52.548;4.918;2024-03-07T11:13:51;102580.69;;;6.72;86.04
16978;BME280;8605;52.548;4.918;2024-03-07T11:16:22;102578.50;;;6.79;86.15
16978;BME280;8605;52.548;4.918;2024-03-07T11:19:17;102571.78;;;6.72;86.70
16978;BME280;8605;52.548;4.918;2024-03-07T11:21:47;102576.00;;;6.76;86.53
16978;BME280;8605;52.548;4.918;2024-03-07T11:24:25;102579.91;;;6.70;86.65
16978;BME280;8605;52.548;4.918;2024-03-07T11:26:55;102574.53;;;6.70;86.36
16978;BME280;8605;52.548;4.918;2024-03-07T11:29:39;102572.59;;;6.58;85.90
16978;BME280;8605;52.548;4.918;2024-03-07T11:32:10;102574.41;;;6.58;85.55
16978;BME280;8605;52.548;4.918;2024-03-07T11:34:42;102560.66;;;6.64;85.76
16978;BME280;8605;52.548;4.918;2024-03-07T11:37:19;102573.69;;;6.70;86.15
16978;BME280;8605;52.548;4.918;2024-03-07T11:39:50;102563.56;;;6.75;85.71
16978;BME280;8605;52.548;4.918;2024-03-07T11:42:23;102565.84;;;6.67;85.37
16978;BME280;8605;52.548;4.918;2024-03-07T11:44:53;102559.94;;;6.76;85.08
16978;BME280;8605;52.548;4.918;2024-03-07T11:47:23;102550.09;;;6.76;84.68
16978;BME280;8605;52.548;4.918;2024-03-07T11:49:52;102544.31;;;6.84;84.97
16978;BME280;8605;52.548;4.918;2024-03-07T11:52:21;102540.59;;;6.87;85.06
16978;BME280;8605;52.548;4.918;2024-03-07T11:54:49;102535.13;;;6.88;85.64
16978;BME280;8605;52.548;4.918;2024-03-07T11:57:17;102528.25;;;6.84;84.94
16978;BME280;8605;52.548;4.918;2024-03-07T11:59:52;102530.47;;;6.92;85.68
16978;BME280;8605;52.548;4.918;2024-03-07T12:02:20;102520.06;;;7.01;85.79
16978;BME280;8605;52.548;4.918;2024-03-07T12:04:49;102517.00;;;7.07;85.34
16978;BME280;8605;52.548;4.918;2024-03-07T12:07:17;102519.97;;;7.03;85.25
16978;BME280;8605;52.548;4.918;2024-03-07T12:09:50;102508.41;;;7.02;85.67
16978;BME280;8605;52.548;4.918;2024-03-07T12:12:21;102512.16;;;7.00;84.95
16978;BME280;8605;52.548;4.918;2024-03-07T12:14:50;102497.13;;;6.97;85.20
16978;BME280;8605;52.548;4.918;2024-03-07T12:17:19;102495.50;;;7.09;85.28
16978;BME280;8605;52.548;4.918;2024-03-07T12:19:47;102489.56;;;7.04;85.86
16978;BME280;8605;52.548;4.918;2024-03-07T12:22:19;102490.13;;;6.95;85.50
16978;BME280;8605;52.548;4.918;2024-03-07T12:25:01;102487.28;;;6.98;85.29
16978;BME280;8605;52.548;4.918;2024-03-07T12:27:30;102481.63;;;7.02;85.41
16978;BME280;8605;52.548;4.918;2024-03-07T12:29:58;102474.19;;;7.07;85.73
16978;BME280;8605;52.548;4.918;2024-03-07T12:32:28;102469.97;;;7.03;85.97
16978;BME280;8605;52.548;4.918;2024-03-07T12:34:58;102467.22;;;7.05;86.55
16978;BME280;8605;52.548;4.918;2024-03-07T12:37:26;102458.97;;;7.08;86.53
16978;BME280;8605;52.548;4.918;2024-03-07T12:40:12;102462.53;;;7.08;87.08
16978;BME280;8605;52.548;4.918;2024-03-07T12:42:46;102456.69;;;7.02;87.31
16978;BME280;8605;52.548;4.918;2024-03-07T12:45:15;102457.16;;;6.94;86.72
16978;BME280;8605;52.548;4.918;2024-03-07T12:47:46;102460.22;;;7.02;86.79
16978;BME280;8605;52.548;4.918;2024-03-07T12:50:17;102456.50;;;7.05;87.36
16978;BME280;8605;52.548;4.918;2024-03-07T12:52:47;102458.25;;;7.06;87.69
16978;BME280;8605;52.548;4.918;2024-03-07T12:55:18;102441.41;;;7.04;87.07
16978;BME280;8605;52.548;4.918;2024-03-07T12:57:48;102449.13;;;7.08;87.54
16978;BME280;8605;52.548;4.918;2024-03-07T13:00:17;102441.59;;;7.01;86.88
16978;BME280;8605;52.548;4.918;2024-03-07T13:02:47;102441.03;;;7.10;87.32
16978;BME280;8605;52.548;4.918;2024-03-07T13:05:15;102429.38;;;7.11;87.14
16978;BME280;8605;52.548;4.918;2024-03-07T13:07:48;102422.66;;;7.04;87.52
16978;BME280;8605;52.548;4.918;2024-03-07T13:10:18;102432.03;;;6.97;87.20
16978;BME280;8605;52.548;4.918;2024-03-07T13:12:47;102428.69;;;7.07;87.45
16978;BME280;8605;52.548;4.918;2024-03-07T13:15:16;102428.97;;;7.03;86.92
16978;BME280;8605;52.548;4.918;2024-03-07T13:17:44;102426.28;;;7.03;86.69
16978;BME280;8605;52.548;4.918;2024-03-07T13:20:12;102426.84;;;6.94;87.03
16978;BME280;8605;52.548;4.918;2024-03-07T13:22:41;102427.34;;;7.00;87.29